createdAt,value
2019-05-23T00:00:04.793Z,82.34
2019-05-23T00:01:04.926Z,82.06
2019-05-23T00:02:05.037Z,82.34
2019-05-23T00:03:05.180Z,82.53
2019-05-23T00:04:05.307Z,81.96
2019-05-23T00:05:05.437Z,81.77
2019-05-23T00:06:05.601Z,81.48
2019-05-23T00:07:05.743Z,81.58
2019-05-23T00:08:05.858Z,81.96
2019-05-23T00:09:05.990Z,82.43
2019-05-23T00:10:06.124Z,82.34
2019-05-23T00:11:06.249Z,82.72
2019-05-23T00:12:06.380Z,82.43
2019-05-23T00:13:06.507Z,82.34
2019-05-23T00:14:06.658Z,82.24
2019-05-23T00:15:06.788Z,82.24
2019-05-23T00:16:06.903Z,81.86
2019-05-23T00:17:07.046Z,82.15
2019-05-23T00:18:08.011Z,81.35
2019-05-23T00:19:07.279Z,81.67
2019-05-23T00:20:07.389Z,82.06
2019-05-23T00:21:07.522Z,81.86
2019-05-23T00:22:07.677Z,82.15
2019-05-23T00:23:07.794Z,81.86
2019-05-23T00:24:07.928Z,81.77
2019-05-23T00:25:08.049Z,81.48
2019-05-23T00:26:08.173Z,81.48
2019-05-23T00:27:08.307Z,81.86
2019-05-23T00:28:08.489Z,81.58
2019-05-23T00:29:10.330Z,81.96
2019-05-23T00:30:08.740Z,81.54
2019-05-23T00:31:08.878Z,81.63
2019-05-23T00:32:09.020Z,81.54
2019-05-23T00:33:09.150Z,82.01
2019-05-23T00:34:09.279Z,82.53
2019-05-23T00:35:09.393Z,82.40
2019-05-23T00:36:09.523Z,82.30
2019-05-23T00:37:09.646Z,82.49
2019-05-23T00:38:09.778Z,82.20
2019-05-23T00:39:09.907Z,82.40
2019-05-23T00:40:10.042Z,82.40
2019-05-23T00:41:10.161Z,82.40
2019-05-23T00:42:10.291Z,82.20
2019-05-23T00:43:10.429Z,82.78
2019-05-23T00:44:10.537Z,82.43
2019-05-23T00:45:10.665Z,82.49
2019-05-23T00:46:10.794Z,82.40
2019-05-23T00:47:10.924Z,82.59
2019-05-23T00:48:11.047Z,82.68
2019-05-23T00:49:11.177Z,82.59
2019-05-23T00:50:11.307Z,82.30
2019-05-23T00:51:11.433Z,82.49
2019-05-23T00:52:11.584Z,82.30
2019-05-23T00:53:11.691Z,81.92
2019-05-23T00:54:11.829Z,82.40
2019-05-23T00:55:11.963Z,81.44
2019-05-23T00:56:12.089Z,81.63
2019-05-23T00:57:12.219Z,81.63
2019-05-23T00:58:12.372Z,82.40
2019-05-23T00:59:25.898Z,82.49
2019-05-23T01:00:12.630Z,82.30
2019-05-23T01:01:12.755Z,81.73
2019-05-23T01:02:12.897Z,81.44
2019-05-23T01:03:13.024Z,82.11
2019-05-23T01:04:13.153Z,81.73
2019-05-23T01:05:13.274Z,82.87
2019-05-23T01:06:13.402Z,82.20
2019-05-23T01:07:13.526Z,82.01
2019-05-23T01:08:13.648Z,82.49
2019-05-23T01:09:13.777Z,82.30
2019-05-23T01:10:13.902Z,82.01
2019-05-23T01:11:14.046Z,81.92
2019-05-23T01:12:14.206Z,82.01
2019-05-23T01:13:14.319Z,82.30
2019-05-23T01:14:14.441Z,82.01
2019-05-23T01:15:14.600Z,82.40
2019-05-23T01:16:14.722Z,82.40
2019-05-23T01:17:14.840Z,82.49
2019-05-23T01:18:14.975Z,82.49
2019-05-23T01:19:15.116Z,82.30
2019-05-23T01:20:15.243Z,82.49
2019-05-23T01:21:15.374Z,82.40
2019-05-23T01:22:15.614Z,82.59
2019-05-23T01:23:15.664Z,82.49
2019-05-23T01:24:15.798Z,82.59
2019-05-23T01:25:15.920Z,82.68
2019-05-23T01:26:16.054Z,82.59
2019-05-23T01:27:16.177Z,82.68
2019-05-23T01:28:16.306Z,82.20
2019-05-23T01:29:16.443Z,82.40
2019-05-23T01:30:16.573Z,82.40
2019-05-23T01:31:16.698Z,82.49
2019-05-23T01:32:16.824Z,82.40
2019-05-23T01:33:16.946Z,82.30
2019-05-23T01:34:17.098Z,82.59
2019-05-23T01:35:17.227Z,82.49
2019-05-23T01:36:17.356Z,82.59
2019-05-23T01:37:17.482Z,82.11
2019-05-23T01:38:17.628Z,82.11
2019-05-23T01:39:17.770Z,82.20
2019-05-23T01:40:17.882Z,81.97
2019-05-23T01:41:18.010Z,82.01
2019-05-23T01:42:18.183Z,82.07
2019-05-23T01:43:18.319Z,82.20
2019-05-23T01:44:18.447Z,82.35
2019-05-23T01:45:18.578Z,82.30
2019-05-23T01:46:18.728Z,82.78
2019-05-23T01:47:18.851Z,83.12
2019-05-23T01:48:18.992Z,82.97
2019-05-23T01:49:19.118Z,83.54
2019-05-23T01:50:19.249Z,83.44
2019-05-23T01:51:19.373Z,83.40
2019-05-23T01:52:19.510Z,83.35
2019-05-23T01:53:19.645Z,83.64
2019-05-23T01:54:19.774Z,83.44
2019-05-23T01:55:19.902Z,83.54
2019-05-23T01:56:20.032Z,83.83
2019-05-23T01:57:20.160Z,83.25
2019-05-23T01:58:20.346Z,83.64
2019-05-23T01:59:20.417Z,83.83
2019-05-23T02:00:20.547Z,83.25
2019-05-23T02:01:20.682Z,83.35
2019-05-23T02:02:20.831Z,83.69
2019-05-23T02:03:20.958Z,83.83
2019-05-23T02:04:21.088Z,83.25
2019-05-23T02:05:21.229Z,83.73
2019-05-23T02:06:21.345Z,83.59
2019-05-23T02:07:21.474Z,83.44
2019-05-23T02:08:21.625Z,83.25
2019-05-23T02:09:21.761Z,83.31
2019-05-23T02:10:21.902Z,83.21
2019-05-23T02:11:22.020Z,82.73
2019-05-23T02:12:22.146Z,82.54
2019-05-23T02:13:22.296Z,82.35
2019-05-23T02:14:22.422Z,82.64
2019-05-23T02:15:22.548Z,83.02
2019-05-23T02:16:22.719Z,82.83
2019-05-23T02:17:22.833Z,82.54
2019-05-23T02:18:22.962Z,82.92
2019-05-23T02:19:23.100Z,83.50
2019-05-23T02:20:23.296Z,83.31
2019-05-23T02:21:23.365Z,83.31
2019-05-23T02:22:23.493Z,82.83
2019-05-23T02:23:23.606Z,83.40
2019-05-23T02:24:23.737Z,83.40
2019-05-23T02:25:23.862Z,83.31
2019-05-23T02:26:23.990Z,82.92
2019-05-23T02:27:24.133Z,83.88
2019-05-23T02:28:24.255Z,83.59
2019-05-23T02:29:24.383Z,83.88
2019-05-23T02:30:34.478Z,83.12
2019-05-23T02:31:24.670Z,83.31
2019-05-23T02:32:24.796Z,83.31
2019-05-23T02:33:24.926Z,83.40
2019-05-23T02:34:25.059Z,83.40
2019-05-23T02:35:25.214Z,83.50
2019-05-23T02:36:25.332Z,83.97
2019-05-23T02:37:25.458Z,83.12
2019-05-23T02:38:25.586Z,83.31
2019-05-23T02:39:25.724Z,83.31
2019-05-23T02:40:25.848Z,83.31
2019-05-23T02:41:25.972Z,83.31
2019-05-23T02:42:26.118Z,83.59
2019-05-23T02:43:26.253Z,83.31
2019-05-23T02:44:26.368Z,83.59
2019-05-23T02:45:26.493Z,83.78
2019-05-23T02:46:26.627Z,84.07
2019-05-23T02:47:26.773Z,83.59
2019-05-23T02:48:26.898Z,83.78
2019-05-23T02:49:27.030Z,83.21
2019-05-23T02:50:27.161Z,83.21
2019-05-23T02:51:27.362Z,84.07
2019-05-23T02:52:27.447Z,84.16
2019-05-23T02:53:27.577Z,84.26
2019-05-23T02:54:27.713Z,83.50
2019-05-23T02:55:27.857Z,83.78
2019-05-23T02:56:27.983Z,83.69
2019-05-23T02:57:28.113Z,84.16
2019-05-23T02:58:28.272Z,83.69
2019-05-23T02:59:28.394Z,83.31
2019-05-23T03:00:28.519Z,83.50
2019-05-23T03:01:28.646Z,83.31
2019-05-23T03:02:28.804Z,82.73
2019-05-23T03:03:28.942Z,82.83
2019-05-23T03:04:29.055Z,82.73
2019-05-23T03:05:29.194Z,82.45
2019-05-23T03:06:29.326Z,82.83
2019-05-23T03:07:29.459Z,82.35
2019-05-23T03:08:29.582Z,82.54
2019-05-23T03:09:29.725Z,82.92
2019-05-23T03:10:29.843Z,83.21
2019-05-23T03:11:29.975Z,83.31
2019-05-23T03:12:30.101Z,83.02
2019-05-23T03:13:30.267Z,83.31
2019-05-23T03:14:30.395Z,83.02
2019-05-23T03:15:30.520Z,83.12
2019-05-23T03:16:30.656Z,82.64
2019-05-23T03:17:30.810Z,82.83
2019-05-23T03:18:34.444Z,83.12
2019-05-23T03:19:31.083Z,83.12
2019-05-23T03:20:31.225Z,83.02
2019-05-23T03:21:31.350Z,83.40
2019-05-23T03:22:31.482Z,83.69
2019-05-23T03:23:31.608Z,83.31
2019-05-23T03:24:31.768Z,83.50
2019-05-23T03:25:31.894Z,83.12
2019-05-23T03:26:32.020Z,82.92
2019-05-23T03:27:32.145Z,82.64
2019-05-23T03:28:32.292Z,82.54
2019-05-23T03:29:32.425Z,83.50
2019-05-23T03:30:32.569Z,82.89
2019-05-23T03:31:33.346Z,83.26
2019-05-23T03:32:38.229Z,83.40
2019-05-23T03:33:32.919Z,83.59
2019-05-23T03:34:33.053Z,83.40
2019-05-23T03:35:33.195Z,83.26
2019-05-23T03:36:33.314Z,83.59
2019-05-23T03:37:33.458Z,83.45
2019-05-23T03:38:33.591Z,83.50
2019-05-23T03:39:33.757Z,83.26
2019-05-23T03:40:33.846Z,83.36
2019-05-23T03:41:33.971Z,84.07
2019-05-23T03:42:34.096Z,83.78
2019-05-23T03:43:34.250Z,83.97
2019-05-23T03:44:34.385Z,83.69
2019-05-23T03:45:39.209Z,83.93
2019-05-23T03:46:34.640Z,83.93
2019-05-23T03:47:34.793Z,83.84
2019-05-23T03:48:34.919Z,83.84
2019-05-23T03:49:35.050Z,84.22
2019-05-23T03:50:35.187Z,84.41
2019-05-23T03:51:35.319Z,84.69
2019-05-23T03:52:35.450Z,84.88
2019-05-23T03:53:35.579Z,85.55
2019-05-23T03:54:35.704Z,85.46
2019-05-23T03:55:35.855Z,84.98
2019-05-23T03:56:35.980Z,84.79
2019-05-23T03:57:36.096Z,85.55
2019-05-23T03:58:36.243Z,85.55
2019-05-23T03:59:36.381Z,85.64
2019-05-23T04:00:36.505Z,86.03
2019-05-23T04:01:47.745Z,86.32
2019-05-23T04:02:36.754Z,86.69
2019-05-23T04:03:39.813Z,86.88
2019-05-23T04:04:37.025Z,86.79
2019-05-23T04:05:37.155Z,87.07
2019-05-23T04:06:37.331Z,87.46
2019-05-23T04:07:37.421Z,87.36
2019-05-23T04:08:37.545Z,87.84
2019-05-23T04:09:37.677Z,87.84
2019-05-23T04:10:37.824Z,87.74
2019-05-23T04:11:37.958Z,88.07
2019-05-23T04:12:38.071Z,88.03
2019-05-23T04:13:38.210Z,88.31
2019-05-23T04:14:38.335Z,88.51
2019-05-23T04:15:38.477Z,88.79
2019-05-23T04:16:38.600Z,89.17
2019-05-23T04:17:38.757Z,89.46
2019-05-23T04:18:38.860Z,89.84
2019-05-23T04:19:38.992Z,89.55
2019-05-23T04:20:39.119Z,90.22
2019-05-23T04:21:39.246Z,89.84
2019-05-23T04:22:39.384Z,90.31
2019-05-23T04:23:39.512Z,90.41
2019-05-23T04:24:39.632Z,90.41
2019-05-23T04:25:39.771Z,90.98
2019-05-23T04:26:39.893Z,90.98
2019-05-23T04:27:40.050Z,91.17
2019-05-23T04:28:40.166Z,91.55
2019-05-23T04:29:40.301Z,91.84
2019-05-23T04:30:40.417Z,91.94
2019-05-23T04:31:40.558Z,92.32
2019-05-23T04:32:40.721Z,92.50
2019-05-23T04:33:40.830Z,92.60
2019-05-23T04:34:40.948Z,92.69
2019-05-23T04:35:41.081Z,92.50
2019-05-23T04:36:41.211Z,92.36
2019-05-23T04:37:41.353Z,92.55
2019-05-23T04:38:41.478Z,93.08
2019-05-23T04:39:41.694Z,92.79
2019-05-23T04:40:41.746Z,92.89
2019-05-23T04:41:41.869Z,93.17
2019-05-23T04:42:41.989Z,93.08
2019-05-23T04:43:42.147Z,92.98
2019-05-23T04:44:44.329Z,92.79
2019-05-23T04:45:42.416Z,92.69
2019-05-23T04:46:42.553Z,92.69
2019-05-23T04:47:42.764Z,92.60
2019-05-23T04:48:42.817Z,92.18
2019-05-23T04:49:42.947Z,91.99
2019-05-23T04:50:43.090Z,91.84
2019-05-23T04:51:43.243Z,91.89
2019-05-23T04:52:43.354Z,91.99
2019-05-23T04:53:43.471Z,92.27
2019-05-23T04:54:43.593Z,92.65
2019-05-23T04:55:43.724Z,92.65
2019-05-23T04:56:43.861Z,92.36
2019-05-23T04:57:43.986Z,92.46
2019-05-23T04:58:44.131Z,92.50
2019-05-23T04:59:44.256Z,92.55
2019-05-23T05:00:44.389Z,92.69
2019-05-23T05:01:44.530Z,92.22
2019-05-23T05:02:44.652Z,91.74
2019-05-23T05:03:44.774Z,91.65
2019-05-23T05:04:44.919Z,91.74
2019-05-23T05:05:45.092Z,91.55
2019-05-23T05:06:45.194Z,91.74
2019-05-23T05:07:45.380Z,91.74
2019-05-23T05:08:45.483Z,92.13
2019-05-23T05:09:45.599Z,92.03
2019-05-23T05:10:45.710Z,91.74
2019-05-23T05:11:45.838Z,91.55
2019-05-23T05:12:46.023Z,91.74
2019-05-23T05:13:46.171Z,91.65
2019-05-23T05:14:46.296Z,91.55
2019-05-23T05:15:46.442Z,91.27
2019-05-23T05:16:46.569Z,91.46
2019-05-23T05:17:46.698Z,91.17
2019-05-23T05:18:46.828Z,90.60
2019-05-23T05:19:47.005Z,91.08
2019-05-23T05:20:47.137Z,90.60
2019-05-23T05:21:47.268Z,90.89
2019-05-23T05:22:47.414Z,91.08
2019-05-23T05:23:47.553Z,90.31
2019-05-23T05:24:47.666Z,90.70
2019-05-23T05:25:47.789Z,90.60
2019-05-23T05:26:47.928Z,90.79
2019-05-23T05:27:48.066Z,90.98
2019-05-23T05:28:48.194Z,91.36
2019-05-23T05:29:48.326Z,91.36
2019-05-23T05:30:48.450Z,91.27
2019-05-23T05:31:48.600Z,91.17
2019-05-23T05:32:48.715Z,91.27
2019-05-23T05:33:48.840Z,91.17
2019-05-23T05:34:48.979Z,90.70
2019-05-23T05:35:49.157Z,91.08
2019-05-23T05:36:49.252Z,91.55
2019-05-23T05:37:49.390Z,91.27
2019-05-23T05:38:49.514Z,91.65
2019-05-23T05:39:49.644Z,91.27
2019-05-23T05:40:49.777Z,91.36
2019-05-23T05:41:49.931Z,91.74
2019-05-23T05:42:50.035Z,91.36
2019-05-23T05:43:50.159Z,91.36
2019-05-23T05:44:50.291Z,91.60
2019-05-23T05:45:50.414Z,91.50
2019-05-23T05:46:50.553Z,90.98
2019-05-23T05:47:50.688Z,90.70
2019-05-23T05:48:50.805Z,91.17
2019-05-23T05:49:50.943Z,90.79
2019-05-23T05:50:51.086Z,91.36
2019-05-23T05:51:51.212Z,92.03
2019-05-23T05:52:51.343Z,92.27
2019-05-23T05:53:51.470Z,91.55
2019-05-23T05:54:51.608Z,92.17
2019-05-23T05:55:51.817Z,92.27
2019-05-23T05:56:51.860Z,92.46
2019-05-23T05:57:51.990Z,92.46
2019-05-23T05:58:52.118Z,92.08
2019-05-23T05:59:52.246Z,92.17
2019-05-23T06:00:52.383Z,91.98
2019-05-23T06:01:52.508Z,91.50
2019-05-23T06:03:03.719Z,91.69
2019-05-23T06:03:52.775Z,91.31
2019-05-23T06:04:52.903Z,91.41
2019-05-23T06:05:53.029Z,91.41
2019-05-23T06:06:53.158Z,91.64
2019-05-23T06:07:53.290Z,91.27
2019-05-23T06:08:53.438Z,91.46
2019-05-23T06:09:53.543Z,91.46
2019-05-23T06:10:53.679Z,91.64
2019-05-23T06:11:53.822Z,91.07
2019-05-23T06:12:53.940Z,91.07
2019-05-23T06:13:54.273Z,90.69
2019-05-23T06:14:54.203Z,91.27
2019-05-23T06:15:54.325Z,91.07
2019-05-23T06:16:54.452Z,90.79
2019-05-23T06:17:54.581Z,90.88
2019-05-23T06:18:54.703Z,90.41
2019-05-23T06:19:54.850Z,90.22
2019-05-23T06:20:55.016Z,90.12
2019-05-23T06:21:55.112Z,90.22
2019-05-23T06:22:55.244Z,90.79
2019-05-23T06:23:55.369Z,90.50
2019-05-23T06:24:57.509Z,90.88
2019-05-23T06:25:55.637Z,90.59
2019-05-23T06:26:55.759Z,91.27
2019-05-23T06:27:55.887Z,90.93
2019-05-23T06:28:56.019Z,91.79
2019-05-23T06:29:56.159Z,92.17
2019-05-23T06:30:56.283Z,91.98
2019-05-23T06:31:56.415Z,92.65
2019-05-23T06:32:56.554Z,92.84
2019-05-23T06:33:56.674Z,92.74
2019-05-23T06:34:56.813Z,92.88
2019-05-23T06:35:56.940Z,93.27
2019-05-23T06:36:57.070Z,93.46
2019-05-23T06:37:57.350Z,93.17
2019-05-23T06:38:57.325Z,93.55
2019-05-23T06:39:57.470Z,93.74
2019-05-23T06:40:57.592Z,93.46
2019-05-23T06:41:57.714Z,94.22
2019-05-23T06:42:57.844Z,93.93
2019-05-23T06:43:57.973Z,93.55
2019-05-23T06:44:58.133Z,93.17
2019-05-23T06:45:58.236Z,93.36
2019-05-23T06:46:58.377Z,93.36
2019-05-23T06:47:58.497Z,93.02
2019-05-23T06:48:58.620Z,92.65
2019-05-23T06:49:58.752Z,92.83
2019-05-23T06:50:58.877Z,92.83
2019-05-23T06:51:59.008Z,92.74
2019-05-23T06:52:59.141Z,92.83
2019-05-23T06:53:59.268Z,92.36
2019-05-23T06:54:59.934Z,92.83
2019-05-23T06:55:59.527Z,92.65
2019-05-23T06:56:59.658Z,92.74
2019-05-23T06:57:59.794Z,93.79
2019-05-23T06:58:59.917Z,93.70
2019-05-23T07:00:00.044Z,93.51
2019-05-23T07:01:00.186Z,93.60
2019-05-23T07:02:00.318Z,93.22
2019-05-23T07:03:00.441Z,93.41
2019-05-23T07:04:00.577Z,93.02
2019-05-23T07:05:00.698Z,92.83
2019-05-23T07:06:00.839Z,92.88
2019-05-23T07:07:00.975Z,93.07
2019-05-23T07:08:01.104Z,93.36
2019-05-23T07:09:01.228Z,93.65
2019-05-23T07:10:01.598Z,92.69
2019-05-23T07:11:01.520Z,93.74
2019-05-23T07:12:01.659Z,93.17
2019-05-23T07:13:01.764Z,93.17
2019-05-23T07:14:01.894Z,92.69
2019-05-23T07:15:02.386Z,92.60
2019-05-23T07:16:02.154Z,92.79
2019-05-23T07:17:02.276Z,92.60
2019-05-23T07:18:02.422Z,92.69
2019-05-23T07:19:02.534Z,92.41
2019-05-23T07:20:02.660Z,93.07
2019-05-23T07:21:02.829Z,92.50
2019-05-23T07:22:02.939Z,92.93
2019-05-23T07:23:03.071Z,92.97
2019-05-23T07:24:03.190Z,92.74
2019-05-23T07:25:03.317Z,92.07
2019-05-23T07:26:03.448Z,91.40
2019-05-23T07:27:03.612Z,91.59
2019-05-23T07:28:03.722Z,91.69
2019-05-23T07:29:03.843Z,91.59
2019-05-23T07:30:03.969Z,90.92
2019-05-23T07:31:04.102Z,91.69
2019-05-23T07:32:04.243Z,91.59
2019-05-23T07:33:04.363Z,91.88
2019-05-23T07:34:04.494Z,91.30
2019-05-23T07:35:04.620Z,91.02
2019-05-23T07:36:04.756Z,91.21
2019-05-23T07:37:04.881Z,90.54
2019-05-23T07:38:05.032Z,90.16
2019-05-23T07:39:05.163Z,90.49
2019-05-23T07:40:05.276Z,90.20
2019-05-23T07:41:05.432Z,91.64
2019-05-23T07:42:05.559Z,91.35
2019-05-23T07:43:05.670Z,90.78
2019-05-23T07:44:05.845Z,90.01
2019-05-23T07:45:05.931Z,90.59
2019-05-23T07:46:06.073Z,90.39
2019-05-23T07:47:06.215Z,90.20
2019-05-23T07:48:06.347Z,90.49
2019-05-23T07:49:06.485Z,90.20
2019-05-23T07:50:06.608Z,90.01
2019-05-23T07:51:06.739Z,90.20
2019-05-23T07:52:06.872Z,90.11
2019-05-23T07:53:06.996Z,89.63
2019-05-23T07:54:07.128Z,89.67
2019-05-23T07:55:07.261Z,89.96
2019-05-23T07:56:07.387Z,91.02
2019-05-23T07:57:07.521Z,90.82
2019-05-23T07:58:07.651Z,90.25
2019-05-23T07:59:07.791Z,90.73
2019-05-23T08:00:07.993Z,90.34
2019-05-23T08:01:08.099Z,90.06
2019-05-23T08:02:08.179Z,88.91
2019-05-23T08:03:08.323Z,88.62
2019-05-23T08:04:20.437Z,87.48
2019-05-23T08:05:08.568Z,87.29
2019-05-23T08:06:08.710Z,87.23
2019-05-23T08:07:08.832Z,88.19
2019-05-23T08:08:09.230Z,87.52
2019-05-23T08:09:09.085Z,86.85
2019-05-23T08:10:09.236Z,86.94
2019-05-23T08:11:09.373Z,87.04
2019-05-23T08:12:09.502Z,87.23
2019-05-23T08:13:09.666Z,87.23
2019-05-23T08:14:12.086Z,87.04
2019-05-23T08:15:09.892Z,87.14
2019-05-23T08:16:10.018Z,86.76
2019-05-23T08:17:10.148Z,86.85
2019-05-23T08:18:10.279Z,86.37
2019-05-23T08:19:10.417Z,86.57
2019-05-23T08:20:10.542Z,85.99
2019-05-23T08:21:10.675Z,85.51
2019-05-23T08:22:10.805Z,85.84
2019-05-23T08:23:10.954Z,85.65
2019-05-23T08:24:11.081Z,85.75
2019-05-23T08:25:11.206Z,85.36
2019-05-23T08:26:11.341Z,84.98
2019-05-23T08:27:11.477Z,85.65
2019-05-23T08:28:11.593Z,85.55
2019-05-23T08:29:25.382Z,85.75
2019-05-23T08:30:11.863Z,85.55
2019-05-23T08:31:11.987Z,85.75
2019-05-23T08:32:12.113Z,86.61
2019-05-23T08:33:12.330Z,86.32
2019-05-23T08:34:12.385Z,87.03
2019-05-23T08:35:17.225Z,86.36
2019-05-23T08:36:12.647Z,85.60
2019-05-23T08:37:12.800Z,85.69
2019-05-23T08:38:12.920Z,85.31
2019-05-23T08:39:13.047Z,84.35
2019-05-23T08:40:13.178Z,84.83
2019-05-23T08:41:13.340Z,84.92
2019-05-23T08:42:13.450Z,83.87
2019-05-23T08:43:13.889Z,83.68
2019-05-23T08:44:13.718Z,82.82
2019-05-23T08:45:13.851Z,81.67
2019-05-23T08:46:13.992Z,82.57
2019-05-23T08:47:14.118Z,81.81
2019-05-23T08:48:14.254Z,81.81
2019-05-23T08:49:14.385Z,81.71
2019-05-23T08:50:14.507Z,81.43
2019-05-23T08:51:14.641Z,81.71
2019-05-23T08:52:14.777Z,81.13
2019-05-23T08:53:14.906Z,80.66
2019-05-23T08:54:15.095Z,80.47
2019-05-23T08:55:15.176Z,81.81
2019-05-23T08:56:18.785Z,81.13
2019-05-23T08:57:15.435Z,80.47
2019-05-23T08:58:15.571Z,80.08
2019-05-23T08:59:15.703Z,79.45
2019-05-23T09:00:15.837Z,79.83
2019-05-23T09:01:15.977Z,80.60
2019-05-23T09:02:16.106Z,78.59
2019-05-23T09:03:16.238Z,78.49
2019-05-23T09:04:16.373Z,80.22
2019-05-23T09:05:16.504Z,80.41
2019-05-23T09:06:16.638Z,79.93
2019-05-23T09:07:16.769Z,79.55
2019-05-23T09:08:17.431Z,79.26
2019-05-23T09:09:29.282Z,78.53
2019-05-23T09:10:17.160Z,78.53
2019-05-23T09:11:17.285Z,77.48
2019-05-23T09:12:17.434Z,77.09
2019-05-23T09:13:17.574Z,77.67
2019-05-23T09:14:17.701Z,76.90
2019-05-23T09:15:17.828Z,77.19
2019-05-23T09:16:17.972Z,75.75
2019-05-23T09:17:18.124Z,75.85
2019-05-23T09:18:18.250Z,75.85
2019-05-23T09:19:18.386Z,75.56
2019-05-23T09:20:18.508Z,75.18
2019-05-23T09:21:18.651Z,75.08
2019-05-23T09:22:18.780Z,74.69
2019-05-23T09:23:18.919Z,74.35
2019-05-23T09:24:19.058Z,75.18
2019-05-23T09:25:19.209Z,74.73
2019-05-23T09:26:19.322Z,72.97
2019-05-23T09:27:19.450Z,73.77
2019-05-23T09:28:19.586Z,74.93
2019-05-23T09:29:19.757Z,74.83
2019-05-23T09:30:19.871Z,73.77
2019-05-23T09:31:20.011Z,72.33
2019-05-23T09:32:20.146Z,72.43
2019-05-23T09:33:20.311Z,72.81
2019-05-23T09:34:20.445Z,73.77
2019-05-23T09:35:21.985Z,73.77
2019-05-23T09:36:20.699Z,73.77
2019-05-23T09:37:20.868Z,74.35
2019-05-23T09:38:20.989Z,75.31
2019-05-23T09:39:21.125Z,73.72
2019-05-23T09:40:21.267Z,74.19
2019-05-23T09:41:21.399Z,73.81
2019-05-23T09:42:21.542Z,72.95
2019-05-23T09:43:21.669Z,73.04
2019-05-23T09:44:21.852Z,71.22
2019-05-23T09:45:21.969Z,70.74
2019-05-23T09:46:22.096Z,71.80
2019-05-23T09:47:22.228Z,73.27
2019-05-23T09:48:22.399Z,71.98
2019-05-23T09:49:22.495Z,70.78
2019-05-23T09:50:22.635Z,71.03
2019-05-23T09:51:22.768Z,72.18
2019-05-23T09:52:22.980Z,72.37
2019-05-23T09:53:23.045Z,73.75
2019-05-23T09:54:23.183Z,72.41
2019-05-23T09:55:23.313Z,73.94
2019-05-23T09:56:23.462Z,72.02
2019-05-23T09:57:23.588Z,72.83
2019-05-23T09:58:23.728Z,69.81
2019-05-23T09:59:23.882Z,69.37
2019-05-23T10:00:24.027Z,67.35
2019-05-23T10:01:24.160Z,66.30
2019-05-23T10:02:24.290Z,67.07
2019-05-23T10:03:24.461Z,69.46
2019-05-23T10:04:24.589Z,68.41
2019-05-23T10:05:40.997Z,68.41
2019-05-23T10:06:24.902Z,67.35
2019-05-23T10:07:24.978Z,69.46
2019-05-23T10:08:25.154Z,69.27
2019-05-23T10:09:25.290Z,69.37
2019-05-23T10:10:25.414Z,69.18
2019-05-23T10:11:25.554Z,68.31
2019-05-23T10:12:25.689Z,68.60
2019-05-23T10:13:38.484Z,69.56
2019-05-23T10:14:25.950Z,70.04
2019-05-23T10:15:26.091Z,69.46
2019-05-23T10:16:26.234Z,68.79
2019-05-23T10:17:26.390Z,68.60
2019-05-23T10:18:26.499Z,68.60
2019-05-23T10:19:26.671Z,68.70
2019-05-23T10:20:26.795Z,66.58
2019-05-23T10:21:26.921Z,68.41
2019-05-23T10:22:27.055Z,68.02
2019-05-23T10:23:27.208Z,67.54
2019-05-23T10:24:27.338Z,67.25
2019-05-23T10:25:27.471Z,68.60
2019-05-23T10:26:27.608Z,67.64
2019-05-23T10:27:27.749Z,68.41
2019-05-23T10:28:27.887Z,69.46
2019-05-23T10:29:28.024Z,69.18
2019-05-23T10:30:28.155Z,66.58
2019-05-23T10:31:28.287Z,65.81
2019-05-23T10:32:28.423Z,66.58
2019-05-23T10:33:28.550Z,67.16
2019-05-23T10:34:28.679Z,66.49
2019-05-23T10:35:28.820Z,65.33
2019-05-23T10:36:28.959Z,65.72
2019-05-23T10:37:29.100Z,66.10
2019-05-23T10:38:29.607Z,66.20
2019-05-23T10:39:29.354Z,66.49
2019-05-23T10:40:29.500Z,66.71
2019-05-23T10:41:29.623Z,67.00
2019-05-23T10:42:29.756Z,67.19
2019-05-23T10:43:29.888Z,67.07
2019-05-23T10:44:30.024Z,66.52
2019-05-23T10:45:30.158Z,67.58
2019-05-23T10:46:30.355Z,67.68
2019-05-23T10:47:30.442Z,66.71
2019-05-23T10:48:30.557Z,65.84
2019-05-23T10:49:30.723Z,62.96
2019-05-23T10:50:43.668Z,62.29
2019-05-23T10:51:30.966Z,60.37
2019-05-23T10:52:31.101Z,60.56
2019-05-23T10:53:31.252Z,62.10
2019-05-23T10:54:31.398Z,60.69
2019-05-23T10:55:31.509Z,60.69
2019-05-23T10:56:31.648Z,61.36
2019-05-23T10:57:31.776Z,60.39
2019-05-23T10:58:31.905Z,58.47
2019-05-23T10:59:32.047Z,59.34
2019-05-23T11:00:32.181Z,59.72
2019-05-23T11:01:32.310Z,59.53
2019-05-23T11:02:32.450Z,61.36
2019-05-23T11:03:32.607Z,61.52
2019-05-23T11:04:32.735Z,62.23
2019-05-23T11:05:32.871Z,62.80
2019-05-23T11:06:33.003Z,63.38
2019-05-23T11:07:33.140Z,62.71
2019-05-23T11:08:33.273Z,62.23
2019-05-23T11:09:37.664Z,62.90
2019-05-23T11:10:33.540Z,62.74
2019-05-23T11:11:33.681Z,62.35
2019-05-23T11:12:33.809Z,63.48
2019-05-23T11:13:33.951Z,63.31
2019-05-23T11:14:34.079Z,63.51
2019-05-23T11:15:34.219Z,62.26
2019-05-23T11:16:34.342Z,62.74
2019-05-23T11:17:34.480Z,63.22
2019-05-23T11:18:34.612Z,61.00
2019-05-23T11:19:34.744Z,60.62
2019-05-23T11:20:36.170Z,59.66
2019-05-23T11:21:35.038Z,58.79
2019-05-23T11:22:35.168Z,58.60
2019-05-23T11:23:35.297Z,59.97
2019-05-23T11:24:35.436Z,58.82
2019-05-23T11:25:35.622Z,57.28
2019-05-23T11:26:35.710Z,57.35
2019-05-23T11:27:35.863Z,57.73
2019-05-23T11:28:36.003Z,57.73
2019-05-23T11:29:36.122Z,59.97
2019-05-23T11:30:36.266Z,57.67
2019-05-23T11:31:36.409Z,57.86
2019-05-23T11:32:36.540Z,57.37
2019-05-23T11:33:36.667Z,57.09
2019-05-23T11:34:36.796Z,55.74
2019-05-23T11:35:36.930Z,55.35
2019-05-23T11:36:37.350Z,56.22
2019-05-23T11:37:37.203Z,57.86
2019-05-23T11:38:37.352Z,59.59
2019-05-23T11:39:41.939Z,58.65
2019-05-23T11:40:37.613Z,57.79
2019-05-23T11:41:37.743Z,59.33
2019-05-23T11:42:37.890Z,56.82
2019-05-23T11:43:38.024Z,54.90
2019-05-23T11:44:38.157Z,55.83
2019-05-23T11:45:45.657Z,58.65
2019-05-23T11:46:38.417Z,59.23
2019-05-23T11:47:38.699Z,60.10
2019-05-23T11:48:38.687Z,58.47
2019-05-23T11:49:39.381Z,56.05
2019-05-23T11:50:38.955Z,54.52
2019-05-23T11:51:39.095Z,52.59
2019-05-23T11:52:39.227Z,52.20
2019-05-23T11:53:39.367Z,51.53
2019-05-23T11:54:39.501Z,52.40
2019-05-23T11:55:39.651Z,53.19
2019-05-23T11:56:39.794Z,54.06
2019-05-23T11:57:39.945Z,53.87
2019-05-23T11:58:40.064Z,53.96
2019-05-23T11:59:40.181Z,52.33
2019-05-23T12:00:40.354Z,52.91
2019-05-23T12:01:40.451Z,53.09
2019-05-23T12:02:40.584Z,52.71
2019-05-23T12:03:40.714Z,53.09
2019-05-23T12:04:40.872Z,55.12
2019-05-23T12:05:40.979Z,55.22
2019-05-23T12:06:54.397Z,53.48
2019-05-23T12:07:41.259Z,53.80
2019-05-23T12:08:41.390Z,54.54
2019-05-23T12:09:41.527Z,54.66
2019-05-23T12:10:41.667Z,54.66
2019-05-23T12:11:42.804Z,52.35
2019-05-23T12:12:41.959Z,52.33
2019-05-23T12:13:42.106Z,53.09
2019-05-23T12:14:42.247Z,54.57
2019-05-23T12:15:42.375Z,54.06
2019-05-23T12:16:42.524Z,53.80
2019-05-23T12:17:42.653Z,53.31
2019-05-23T12:18:42.780Z,52.45
2019-05-23T12:19:42.912Z,51.68
2019-05-23T12:20:43.059Z,52.93
2019-05-23T12:21:43.192Z,53.03
2019-05-23T12:22:43.443Z,53.41
2019-05-23T12:23:43.480Z,52.55
2019-05-23T12:24:43.612Z,51.87
2019-05-23T12:25:43.759Z,52.06
2019-05-23T12:26:43.890Z,50.21
2019-05-23T12:27:44.059Z,50.98
2019-05-23T12:28:44.171Z,47.80
2019-05-23T12:29:44.335Z,47.60
2019-05-23T12:30:44.434Z,50.42
2019-05-23T12:31:48.923Z,49.34
2019-05-23T12:32:44.711Z,47.63
2019-05-23T12:33:44.853Z,47.92
2019-05-23T12:35:08.036Z,49.07
2019-05-23T12:35:45.119Z,50.62
2019-05-23T12:36:45.256Z,50.52
2019-05-23T12:37:45.380Z,48.57
2019-05-23T12:38:45.510Z,50.04
2019-05-23T12:39:45.690Z,50.52
2019-05-23T12:40:45.819Z,48.59
2019-05-23T12:41:45.958Z,50.62
2019-05-23T12:42:46.098Z,51.87
2019-05-23T12:43:46.245Z,50.90
2019-05-23T12:44:46.406Z,50.52
2019-05-23T12:45:46.520Z,50.32
2019-05-23T12:46:46.648Z,51.00
2019-05-23T12:47:46.785Z,52.25
2019-05-23T12:48:46.919Z,50.71
2019-05-23T12:49:47.109Z,49.46
2019-05-23T12:50:47.290Z,49.07
2019-05-23T12:51:47.421Z,53.03
2019-05-23T12:52:47.553Z,51.48
2019-05-23T12:53:47.718Z,51.00